Latest Weather Observations for Cape Byron

IDN60801

Issued at 1:32 pm EDT Monday 23 October 2017 (issued every 30 minutes, with the page automatically refreshed every 10 minutes)

About weather observations | Map of weather stations | Latest weather observations for NSW | Other Formats
Station Details ID: 058216 Name: CAPE BYRON AWS Lat: -28.64 Lon: 153.64 Height: 95.0 m
Data from the previous 72 hours. | See also: Recent months at Cape Byron
Date/Time
EDT
Temp
°C
App
Temp
°C
Dew
Point
°C
Rel
Hum
%
Delta-T
°C
Wind Press
QNH
hPa
Press
MSL
hPa
Rain since
9am
mm
Dir  Spd
km/h
Gust
km/h
Spd
kts
Gust
kts
23/01:30pm 19.4 21.4 15.9 80 2.1 CALM 0 6 0 3 1016.6 1016.2 0.0
23/01:00pm 19.2 19.8 15.9 81 2.0 ESE 7 11 4 6 1016.8 1016.4 0.0
23/12:30pm 19.6 18.5 16.4 82 1.9 ESE 17 20 9 11 1016.6 1016.2 0.0
23/12:00pm 19.7 18.6 16.3 81 2.0 SE 17 24 9 13 1017.0 1016.6 0.0
23/11:30am 19.3 18.7 16.7 85 1.6 SE 15 20 8 11 1016.8 1016.4 0.0
23/11:00am 19.4 18.1 15.9 80 2.1 SE 17 20 9 11 1017.0 1016.6 0.0
23/10:30am 20.6 19.6 16.6 78 2.4 SSE 17 20 9 11 1017.0 1016.6 0.0
23/10:00am 21.1 21.0 16.1 73 3.0 SE 11 15 6 8 1016.7 1016.3 0.0
23/09:30am 20.0 19.7 15.4 75 2.7 SSW 11 13 6 7 1016.8 1016.4 0.0
23/09:00am 18.9 18.7 14.6 76 2.5 S 9 13 5 7 1016.6 1016.2 0.0
23/08:30am 18.5 18.6 15.6 83 1.7 SSW 9 13 5 7 1016.3 1015.9 0.0
23/08:00am 16.9 16.3 14.7 87 1.3 WSW 11 17 6 9 1015.8 1015.5 0.0
23/07:30am 16.6 15.6 14.6 88 1.2 WSW 13 19 7 10 1015.6 1015.3 0.0
23/07:00am 16.4 15.9 14.8 90 0.9 SW 11 15 6 8 1015.3 1015.0 0.0
23/06:30am 15.9 15.2 14.4 91 0.9 SW 11 13 6 7 1014.9 1014.6 0.0
23/06:00am 17.0 17.5 15.0 88 1.2 WSW 6 7 3 4 1014.7 1014.4 0.0
23/05:30am 16.2 15.5 14.2 88 1.1 WSW 11 13 6 7 1014.4 1014.1 0.0
23/05:00am 16.4 16.2 14.6 89 1.0 SW 9 11 5 6 1014.2 1013.9 0.0
23/04:30am 16.4 15.8 14.6 89 1.0 WSW 11 15 6 8 1014.1 1013.8 0.0
23/04:00am 16.4 16.2 14.8 90 0.9 SSW 9 11 5 6 1014.0 1013.7 0.0
23/03:30am 16.1 14.6 14.3 89 1.0 SW 15 19 8 10 1014.1 1013.8 0.0
23/03:00am 15.8 13.3 13.6 87 1.2 SW 19 22 10 12 1014.1 1013.8 0.0
23/02:30am 17.2 16.0 12.7 75 2.5 WSW 11 15 6 8 1014.2 1013.9 0.0
23/02:00am 17.9 17.1 13.0 73 2.8 SW 9 11 5 6 1014.5 1014.2 0.0
23/01:30am 18.0 17.3 13.1 73 2.8 SW 9 11 5 6 1014.6 1014.3 0.0
23/01:00am 18.8 18.2 13.4 71 3.1 S 9 13 5 7 1014.8 1014.5 0.0
23/12:30am 19.1 18.5 13.5 70 3.2 SE 9 13 5 7 1014.9 1014.6 0.0
23/12:00am 18.8 17.5 13.6 72 3.0 ESE 13 15 7 8 1015.1 1014.8 0.0
 
Date/Time
EDT
Temp
°C
App
Temp
°C
Dew
Point
°C
Rel
Hum
%
Delta-T
°C
Wind Press
QNH
hPa
Press
MSL
hPa
Rain since
9am
mm
Dir  Spd
km/h
Gust
km/h
Spd
kts
Gust
kts
22/11:30pm 19.1 17.4 13.5 70 3.2 ESE 15 17 8 9 1015.1 1014.8 0.0
22/11:00pm 18.7 16.9 13.3 71 3.1 E 15 19 8 10 1015.1 1014.8 0.0
22/10:30pm 18.7 16.1 13.1 70 3.2 E 19 26 10 14 1015.0 1014.7 0.0
22/10:00pm 19.0 15.8 13.2 69 3.3 ESE 22 30 12 16 1014.7 1014.4 0.0
22/09:30pm 19.2 15.7 13.4 69 3.3 ESE 24 32 13 17 1014.5 1014.2 0.0
22/09:00pm 19.3 15.8 13.5 69 3.3 ESE 24 32 13 17 1014.3 1014.0 0.0
22/08:30pm 19.2 16.5 13.6 70 3.2 SE 20 30 11 16 1014.0 1013.7 0.0
22/08:00pm 19.2 16.3 14.0 72 3.0 SE 22 26 12 14 1013.7 1013.4 0.0
22/07:30pm 19.1 16.5 13.7 71 3.1 SE 20 26 11 14 1013.5 1013.2 0.0
22/07:00pm 19.3 16.4 14.1 72 3.0 SE 22 28 12 15 1013.1 1012.8 0.0
22/06:30pm 19.8 16.6 14.2 70 3.3 SE 24 28 13 15 1012.7 1012.4 0.0
22/06:00pm 20.0 17.4 13.9 68 3.5 SSE 20 26 11 14 1012.3 1012.0 0.0
22/05:30pm 20.0 17.4 13.7 67 3.6 SSE 20 30 11 16 1012.2 1011.9 0.0
22/05:00pm 20.2 16.0 13.4 65 3.9 S 28 33 15 18 1012.3 1012.0 0.0
22/04:30pm 20.0 16.0 14.1 69 3.4 S 28 35 15 19 1012.3 1012.0 0.0
22/04:00pm 20.1 15.2 13.6 66 3.7 S 32 35 17 19 1012.2 1011.9 0.0
22/03:30pm 20.0 15.2 13.9 68 3.5 S 32 39 17 21 1012.2 1011.9 0.0
22/03:00pm 19.9 14.7 14.5 71 3.2 S 35 43 19 23 1012.3 1012.0 0.0
22/02:30pm 19.7 14.6 14.9 74 2.8 S 35 43 19 23 1012.6 1012.3 0.0
22/02:00pm 19.4 13.6 13.8 70 3.2 S 37 43 20 23 1012.8 1012.5 0.0
22/01:30pm 19.2 12.8 14.2 73 2.9 S 41 46 22 25 1013.0 1012.7 0.0
22/01:00pm 19.1 13.6 14.8 76 2.5 S 37 44 20 24 1013.2 1012.9 0.0
22/12:30pm 18.9 12.9 14.4 75 2.6 S 39 46 21 25 1013.3 1013.0 0.0
22/12:00pm 19.0 13.8 14.5 75 2.6 S 35 43 19 23 1013.5 1013.2 0.0
22/11:30am 18.9 12.8 14.2 74 2.7 S 39 44 21 24 1013.7 1013.4 0.0
22/11:00am 18.4 12.6 13.9 75 2.6 SSW 37 43 20 23 1013.9 1013.6 0.0
22/10:30am 19.3 16.2 14.6 74 2.7 SW 24 35 13 19 1014.0 1013.7 0.0
22/10:00am 18.6 13.8 13.9 74 2.7 SW 32 41 17 22 1014.1 1013.8 0.0
22/09:30am 18.1 14.0 13.8 76 2.5 SW 28 39 15 21 1014.1 1013.8 0.0
22/09:00am 17.1 12.3 13.0 77 2.3 SW 30 39 16 21 1013.9 1013.6 6.6
22/08:30am 16.1 11.2 12.5 79 2.0 SW 30 43 16 23 1013.7 1013.4 6.6
22/08:00am 15.2 9.8 12.2 82 1.6 SW 32 41 17 22 1013.5 1013.2 6.6
22/07:30am 14.4 8.3 11.7 84 1.5 SW 35 44 19 24 1013.4 1013.1 6.6
22/07:00am 13.8 8.1 11.8 88 1.1 WSW 33 44 18 24 1013.1 1012.8 6.6
22/06:30am 13.5 7.5 12.2 92 0.7 SW 35 44 19 24 1012.8 1012.5 6.6
22/06:00am 13.5 7.6 12.4 93 0.6 SW 35 43 19 23 1012.6 1012.3 6.6
22/05:30am 13.8 7.3 12.9 94 0.5 SW 39 48 21 26 1012.6 1012.3 6.6
22/05:00am 13.9 7.8 13.0 94 0.5 SW 37 44 20 24 1012.5 1012.2 6.6
22/04:30am 14.4 8.4 13.4 94 0.6 SW 37 44 20 24 1012.5 1012.2 6.6
22/04:00am 14.3 8.3 13.2 93 0.6 WSW 37 44 20 24 1012.7 1012.4 6.6
22/03:30am 14.4 8.8 13.4 94 0.6 WSW 35 44 19 24 1012.6 1012.3 6.6
22/03:00am 14.3 8.7 13.2 93 0.6 SW 35 44 19 24 1012.9 1012.6 6.6
22/02:30am 14.5 9.5 13.4 93 0.6 SW 32 43 17 23 1013.2 1012.9 6.6
22/02:00am 14.7 9.6 13.6 93 0.6 SW 33 43 18 23 1013.4 1013.1 6.6
22/01:30am 14.7 9.6 13.7 94 0.6 SW 33 43 18 23 1013.8 1013.5 6.6
22/01:00am 14.9 9.9 14.1 95 0.5 SW 33 43 18 23 1013.9 1013.6 6.6
22/12:30am 15.0 10.2 14.5 97 0.3 SW 33 43 18 23 1014.1 1013.8 6.4
22/12:00am 15.3 9.9 15.0 98 0.2 SW 37 46 20 25 1014.6 1014.3 6.4
 
Date/Time
EDT
Temp
°C
App
Temp
°C
Dew
Point
°C
Rel
Hum
%
Delta-T
°C
Wind Press
QNH
hPa
Press
MSL
hPa
Rain since
9am
mm
Dir  Spd
km/h
Gust
km/h
Spd
kts
Gust
kts
21/11:30pm 15.3 10.7 15.1 99 0.1 SW 33 43 18 23 1014.9 1014.6 6.4
21/11:00pm 15.1 10.0 14.9 99 0.1 SW 35 44 19 24 1014.8 1014.5 6.4
21/10:30pm 15.1 10.1 15.1 100 0.0 SW 35 48 19 26 1015.5 1015.2 6.4
21/10:00pm 14.7 9.9 14.7 100 0.0 SW 33 44 18 24 1015.3 1015.0 6.4
21/09:30pm 14.6 8.7 14.6 100 0.0 SW 39 59 21 32 1014.8 1014.5 6.4
21/09:23pm 14.8 8.6 14.8 100 0.0 SW 41 59 22 32 1014.9 1014.6 6.4
21/09:00pm 14.5 8.5 14.5 100 0.0 SW 39 52 21 28 1014.7 1014.4 6.4
21/08:30pm 14.5 8.9 14.5 100 0.0 SW 37 50 20 27 1014.8 1014.5 6.4
21/08:00pm 14.4 9.2 14.4 100 0.0 SW 35 46 19 25 1015.3 1015.0 6.4
21/07:30pm 14.3 9.6 14.3 100 0.0 SW 32 41 17 22 1014.6 1014.3 6.4
21/07:00pm 14.4 10.1 14.4 100 0.0 SW 30 43 16 23 1014.5 1014.2 6.4
21/06:30pm 14.5 9.7 14.5 100 0.0 SW 33 44 18 24 1014.8 1014.5 6.4
21/06:00pm 14.4 10.1 14.4 100 0.0 SW 30 39 16 21 1014.6 1014.3 6.4
21/05:30pm 14.3 9.6 14.3 100 0.0 SW 32 43 17 23 1014.4 1014.1 5.6
21/05:00pm 14.5 9.9 14.5 100 0.0 SW 32 44 17 24 1014.7 1014.4 4.8
21/04:30pm 14.8 10.3 14.8 100 0.0 SW 32 43 17 23 1014.7 1014.4 4.2
21/04:00pm 15.0 10.5 15.0 100 0.0 SW 32 44 17 24 1014.6 1014.3 4.0
21/03:30pm 15.0 10.0 15.0 100 0.0 SW 35 44 19 24 1014.8 1014.5 3.8
21/03:15pm 15.1 10.5 15.1 100 0.0 SW 33 52 18 28 1014.8 1014.5 3.8
21/03:00pm 15.3 10.0 15.3 100 0.0 SW 37 48 20 26 1014.9 1014.6 3.8
21/02:30pm 15.2 10.3 15.2 100 0.0 SW 35 50 19 27 1015.3 1015.0 3.4
21/02:00pm 15.3 10.0 15.3 100 0.0 SW 37 50 20 27 1015.4 1015.1 3.4
21/01:30pm 15.5 9.9 15.5 100 0.0 SW 39 63 21 34 1015.4 1015.1 3.4
21/01:00pm 15.4 9.8 15.4 100 0.0 SW 39 57 21 31 1015.7 1015.4 3.4
21/12:53pm 15.6 10.4 15.6 100 0.0 SW 37 57 20 31 1015.7 1015.4 3.4
21/12:30pm 15.9 10.8 15.9 100 0.0 SW 37 48 20 26 1016.3 1015.9 3.4
21/12:08pm 16.6 12.2 16.6 100 0.0 SW 35 54 19 29 1016.4 1016.0 3.0
21/12:00pm 16.5 12.0 16.5 100 0.0 SW 35 50 19 27 1016.4 1016.0 3.0
21/11:30am 16.3 11.4 16.3 100 0.0 SW 37 50 20 27 1016.4 1016.0 2.6
21/11:00am 16.6 10.5 16.6 100 0.0 SW 44 61 24 33 1016.3 1015.9 2.4
21/10:57am 16.6 11.0 16.6 100 0.0 SW 41 61 22 33 1016.4 1016.0 2.4
21/10:30am 16.4 11.1 16.4 100 0.0 SW 39 52 21 28 1016.5 1016.1 1.8
21/10:00am 16.5 12.0 16.5 100 0.0 SW 35 48 19 26 1016.7 1016.3 1.4
21/09:31am 16.8 10.4 16.8 100 0.0 SSW 46 67 25 36 1016.4 1016.0 0.6
21/09:30am 16.8 10.4 16.8 100 0.0 SSW 46 61 25 33 1016.4 1016.0 0.6
21/09:23am 16.9 11.1 16.9 100 0.0 SSW 43 61 23 33 1016.4 1016.0 0.4
21/09:00am 16.7 10.8 16.7 100 0.0 SSW 43 57 23 31 1016.1 1015.8 8.4
21/08:30am 16.7 11.9 16.7 100 0.0 SW 37 50 20 27 1015.9 1015.6 7.8
21/08:00am 16.7 12.3 16.7 100 0.0 SW 35 50 19 27 1016.1 1015.8 7.0
21/07:30am 16.8 11.7 16.8 100 0.0 SW 39 52 21 28 1015.9 1015.6 6.2
21/07:00am 16.6 13.1 16.6 100 0.0 SW 30 41 16 22 1015.8 1015.5 5.2
21/06:30am 16.6 12.8 16.6 100 0.0 SW 32 44 17 24 1015.5 1015.2 4.2
21/06:00am 16.7 13.3 16.7 100 0.0 SW 30 41 16 22 1015.6 1015.3 2.8
21/05:30am 17.1 13.5 17.1 100 0.0 SW 32 41 17 22 1015.4 1015.1 1.2
21/05:00am 17.4 15.0 17.4 100 0.0 SW 26 39 14 21 1015.1 1014.8 0.8
21/04:30am 17.7 15.7 17.5 99 0.1 SW 24 35 13 19 1015.1 1014.8 0.6
21/04:00am 19.4 19.3 17.9 91 0.9 WNW 15 20 8 11 1015.1 1014.8 0.0
21/03:30am 19.8 20.6 17.2 85 1.6 NW 9 15 5 8 1015.3 1015.0 0.0
21/03:00am 19.9 20.9 17.7 87 1.4 NNW 9 11 5 6 1015.6 1015.3 0.0
21/02:30am 20.1 21.2 18.1 88 1.2 NW 9 13 5 7 1015.7 1015.4 0.0
21/02:00am 20.2 21.7 18.1 88 1.3 NNW 7 11 4 6 1016.3 1015.9 0.0
21/01:30am 20.2 21.3 18.0 87 1.4 NW 9 13 5 7 1016.6 1016.2 0.0
21/01:00am 20.2 21.3 18.0 87 1.4 NNW 9 13 5 7 1016.9 1016.5 0.0
21/12:30am 20.3 21.1 18.1 87 1.4 NNW 11 19 6 10 1017.2 1016.8 0.0
21/12:00am 20.4 21.0 18.5 89 1.2 NNW 13 22 7 12 1017.4 1017.0 0.0
 
Date/Time
EDT
Temp
°C
App
Temp
°C
Dew
Point
°C
Rel
Hum
%
Delta-T
°C
Wind Press
QNH
hPa
Press
MSL
hPa
Rain since
9am
mm
Dir  Spd
km/h
Gust
km/h
Spd
kts
Gust
kts
20/11:30pm 20.8 20.8 18.9 89 1.2 NNW 17 28 9 15 1017.5 1017.1 0.0
20/11:00pm 20.9 19.8 18.7 87 1.4 N 22 37 12 20 1017.4 1017.0 0.0
20/10:30pm 20.7 19.5 18.5 87 1.4 N 22 32 12 17 1017.4 1017.0 0.0
20/10:00pm 20.6 19.5 18.7 89 1.2 N 22 32 12 17 1017.7 1017.4 0.0
20/09:30pm 20.6 20.7 19.1 91 0.9 NNW 17 26 9 14 1017.7 1017.4 0.0
20/09:00pm 21.1 19.7 18.7 86 1.5 N 24 32 13 17 1017.5 1017.1 0.0
20/08:30pm 21.2 19.5 18.2 83 1.9 N 24 33 13 18 1017.4 1017.0 0.0
20/08:00pm 21.2 19.1 18.0 82 2.0 N 26 35 14 19 1017.5 1017.1 0.0
20/07:30pm 21.3 19.1 17.9 81 2.1 N 26 35 14 19 1017.6 1017.3 0.0
20/07:00pm 21.3 18.7 17.7 80 2.2 N 28 37 15 20 1017.5 1017.1 0.0
20/06:30pm 21.6 18.5 17.4 77 2.6 N 30 41 16 22 1017.3 1016.9 0.0
20/06:00pm 21.8 19.2 17.8 78 2.5 NNE 28 43 15 23 1017.1 1016.7 0.0
20/05:30pm 22.3 18.8 17.4 74 3.0 N 32 43 17 23 1017.0 1016.6 0.0
20/05:00pm 22.4 19.5 18.0 76 2.7 NNE 30 41 16 22 1017.0 1016.6 0.0
20/04:30pm 22.7 19.6 17.4 72 3.3 NNE 30 43 16 23 1017.0 1016.6 0.0
20/04:00pm 22.8 20.3 17.0 70 3.6 NNE 26 39 14 21 1017.3 1016.9 0.0
20/03:30pm 23.1 20.2 17.1 69 3.7 NNE 28 43 15 23 1018.0 1017.7 0.0
20/03:00pm 23.2 20.4 17.2 69 3.7 NNE 28 39 15 21 1018.5 1018.2 0.0
20/02:30pm 23.3 20.9 17.3 69 3.7 NNE 26 39 14 21 1019.1 1018.8 0.0
20/02:00pm 23.3 21.1 16.8 67 4.0 NNE 24 39 13 21 1019.5 1019.2 0.0

Other Formats:

Comma delimited format used in spreadsheet applications
http://www.bom.gov.au/fwo/IDN60801/IDN60801.94599.axf

JavaScript Object Notation format (JSON) in row-major order
http://www.bom.gov.au/fwo/IDN60801/IDN60801.94599.json